sensor_id;sensor_type;location;lat;lon;timestamp;pressure;altitude;pressure_sealevel;temperature;humidity
67987;BME280;54767;53.800;15.956;2023-05-27T00:01:35;101433.45;;;7.69;66.74
67987;BME280;54767;53.800;15.956;2023-05-27T00:04:05;101430.95;;;7.68;66.72
67987;BME280;54767;53.800;15.956;2023-05-27T00:06:33;101429.98;;;7.65;66.95
67987;BME280;54767;53.800;15.956;2023-05-27T00:09:03;101430.81;;;7.63;66.86
67987;BME280;54767;53.800;15.956;2023-05-27T00:11:32;101430.18;;;7.60;66.89
67987;BME280;54767;53.800;15.956;2023-05-27T00:14:00;101426.77;;;7.57;66.92
67987;BME280;54767;53.800;15.956;2023-05-27T00:16:29;101419.84;;;7.53;67.01
67987;BME280;54767;53.800;15.956;2023-05-27T00:18:57;101420.77;;;7.49;66.97
67987;BME280;54767;53.800;15.956;2023-05-27T00:21:26;101424.99;;;7.45;66.94
67987;BME280;54767;53.800;15.956;2023-05-27T00:23:55;101425.70;;;7.41;67.13
67987;BME280;54767;53.800;15.956;2023-05-27T00:26:25;101428.58;;;7.38;67.14
67987;BME280;54767;53.800;15.956;2023-05-27T00:28:54;101425.75;;;7.37;67.16
67987;BME280;54767;53.800;15.956;2023-05-27T00:31:22;101425.05;;;7.37;67.21
67987;BME280;54767;53.800;15.956;2023-05-27T00:33:51;101421.67;;;7.35;67.19
67987;BME280;54767;53.800;15.956;2023-05-27T00:36:19;101423.48;;;7.32;67.37
67987;BME280;54767;53.800;15.956;2023-05-27T00:38:48;101428.65;;;7.30;67.27
67987;BME280;54767;53.800;15.956;2023-05-27T00:41:17;101435.17;;;7.27;67.38
67987;BME280;54767;53.800;15.956;2023-05-27T00:43:46;101432.73;;;7.22;67.33
67987;BME280;54767;53.800;15.956;2023-05-27T00:46:14;101428.08;;;7.19;67.42
67987;BME280;54767;53.800;15.956;2023-05-27T00:48:43;101435.66;;;7.17;67.43
67987;BME280;54767;53.800;15.956;2023-05-27T00:51:12;101436.52;;;7.16;67.26
67987;BME280;54767;53.800;15.956;2023-05-27T00:53:42;101436.64;;;7.14;67.24
67987;BME280;54767;53.800;15.956;2023-05-27T00:56:11;101438.80;;;7.11;67.48
67987;BME280;54767;53.800;15.956;2023-05-27T00:58:45;101439.10;;;7.10;67.38
67987;BME280;54767;53.800;15.956;2023-05-27T01:01:14;101438.60;;;7.06;67.28
67987;BME280;54767;53.800;15.956;2023-05-27T01:03:42;101442.46;;;7.02;67.52
67987;BME280;54767;53.800;15.956;2023-05-27T01:12:08;101445.86;;;6.90;67.64
67987;BME280;54767;53.800;15.956;2023-05-27T01:14:39;101449.52;;;6.90;67.63
67987;BME280;54767;53.800;15.956;2023-05-27T01:17:11;101447.05;;;6.89;67.61
67987;BME280;54767;53.800;15.956;2023-05-27T01:19:41;101443.30;;;6.87;67.56
67987;BME280;54767;53.800;15.956;2023-05-27T01:22:14;101438.52;;;6.84;67.89
67987;BME280;54767;53.800;15.956;2023-05-27T01:24:43;101444.88;;;6.83;67.61
67987;BME280;54767;53.800;15.956;2023-05-27T01:27:11;101446.77;;;6.76;67.99
67987;BME280;54767;53.800;15.956;2023-05-27T01:29:41;101440.17;;;6.72;67.64
67987;BME280;54767;53.800;15.956;2023-05-27T01:32:43;101440.18;;;6.68;67.87
67987;BME280;54767;53.800;15.956;2023-05-27T01:35:17;101440.09;;;6.66;67.93
67987;BME280;54767;53.800;15.956;2023-05-27T01:37:52;101437.77;;;6.64;67.86
67987;BME280;54767;53.800;15.956;2023-05-27T01:40:24;101442.94;;;6.62;67.99
67987;BME280;54767;53.800;15.956;2023-05-27T01:42:53;101442.87;;;6.61;67.74
67987;BME280;54767;53.800;15.956;2023-05-27T01:45:24;101437.23;;;6.59;68.14
67987;BME280;54767;53.800;15.956;2023-05-27T01:47:52;101431.05;;;6.56;68.14
67987;BME280;54767;53.800;15.956;2023-05-27T01:50:21;101438.26;;;6.53;68.08
67987;BME280;54767;53.800;15.956;2023-05-27T01:52:49;101438.62;;;6.49;67.99
67987;BME280;54767;53.800;15.956;2023-05-27T01:55:18;101439.38;;;6.47;68.08
67987;BME280;54767;53.800;15.956;2023-05-27T01:57:46;101440.36;;;6.44;67.84
67987;BME280;54767;53.800;15.956;2023-05-27T02:00:15;101433.19;;;6.44;68.23
67987;BME280;54767;53.800;15.956;2023-05-27T02:02:43;101433.85;;;6.43;68.08
67987;BME280;54767;53.800;15.956;2023-05-27T02:05:12;101435.36;;;6.41;68.17
67987;BME280;54767;53.800;15.956;2023-05-27T02:07:40;101441.32;;;6.38;68.07
67987;BME280;54767;53.800;15.956;2023-05-27T02:10:09;101434.95;;;6.35;68.03
67987;BME280;54767;53.800;15.956;2023-05-27T02:12:38;101433.92;;;6.31;68.15
67987;BME280;54767;53.800;15.956;2023-05-27T02:15:07;101436.92;;;6.28;67.85
67987;BME280;54767;53.800;15.956;2023-05-27T02:17:36;101436.60;;;6.24;67.93
67987;BME280;54767;53.800;15.956;2023-05-27T02:20:06;101438.84;;;6.23;68.02
67987;BME280;54767;53.800;15.956;2023-05-27T02:22:34;101439.38;;;6.19;67.83
67987;BME280;54767;53.800;15.956;2023-05-27T02:25:03;101439.66;;;6.18;68.09
67987;BME280;54767;53.800;15.956;2023-05-27T02:27:31;101438.89;;;6.16;67.90
67987;BME280;54767;53.800;15.956;2023-05-27T02:29:59;101442.42;;;6.13;68.02
67987;BME280;54767;53.800;15.956;2023-05-27T02:32:28;101446.35;;;6.11;67.96
67987;BME280;54767;53.800;15.956;2023-05-27T02:34:56;101451.27;;;6.08;67.79
67987;BME280;54767;53.800;15.956;2023-05-27T02:37:25;101447.12;;;6.04;67.80
67987;BME280;54767;53.800;15.956;2023-05-27T02:39:55;101448.70;;;6.00;67.83
67987;BME280;54767;53.800;15.956;2023-05-27T02:42:24;101445.85;;;5.98;67.98
67987;BME280;54767;53.800;15.956;2023-05-27T02:44:53;101447.56;;;5.98;68.32
67987;BME280;54767;53.800;15.956;2023-05-27T02:47:21;101452.11;;;5.98;67.91
67987;BME280;54767;53.800;15.956;2023-05-27T02:49:50;101454.33;;;5.97;67.98
67987;BME280;54767;53.800;15.956;2023-05-27T02:52:18;101451.98;;;5.95;68.37
67987;BME280;54767;53.800;15.956;2023-05-27T02:54:46;101452.70;;;5.92;68.11
67987;BME280;54767;53.800;15.956;2023-05-27T02:57:14;101453.23;;;5.88;68.42
67987;BME280;54767;53.800;15.956;2023-05-27T02:59:45;101453.11;;;5.85;68.47
67987;BME280;54767;53.800;15.956;2023-05-27T03:02:13;101453.69;;;5.82;68.67
67987;BME280;54767;53.800;15.956;2023-05-27T03:04:42;101461.13;;;5.82;68.45
67987;BME280;54767;53.800;15.956;2023-05-27T03:07:10;101462.38;;;5.82;68.82
67987;BME280;54767;53.800;15.956;2023-05-27T03:09:39;101464.29;;;5.82;68.53
67987;BME280;54767;53.800;15.956;2023-05-27T03:12:07;101463.60;;;5.83;68.71
67987;BME280;54767;53.800;15.956;2023-05-27T03:14:37;101462.54;;;5.82;68.90
67987;BME280;54767;53.800;15.956;2023-05-27T03:17:05;101460.73;;;5.81;69.15
67987;BME280;54767;53.800;15.956;2023-05-27T03:19:33;101458.42;;;5.79;69.10
67987;BME280;54767;53.800;15.956;2023-05-27T03:22:02;101460.52;;;5.79;68.82
67987;BME280;54767;53.800;15.956;2023-05-27T03:24:30;101463.68;;;5.80;69.14
67987;BME280;54767;53.800;15.956;2023-05-27T03:26:59;101461.45;;;5.81;69.13
67987;BME280;54767;53.800;15.956;2023-05-27T03:29:27;101456.25;;;5.82;68.83
67987;BME280;54767;53.800;15.956;2023-05-27T03:31:56;101456.27;;;5.82;68.96
67987;BME280;54767;53.800;15.956;2023-05-27T03:34:24;101458.75;;;5.83;69.01
67987;BME280;54767;53.800;15.956;2023-05-27T03:36:53;101461.73;;;5.84;69.28
67987;BME280;54767;53.800;15.956;2023-05-27T03:39:21;101463.27;;;5.83;69.43
67987;BME280;54767;53.800;15.956;2023-05-27T03:41:50;101467.98;;;5.84;69.29
67987;BME280;54767;53.800;15.956;2023-05-27T03:44:18;101469.66;;;5.86;69.44
67987;BME280;54767;53.800;15.956;2023-05-27T03:46:46;101467.76;;;5.91;69.64
67987;BME280;54767;53.800;15.956;2023-05-27T03:49:15;101464.69;;;5.96;69.67
67987;BME280;54767;53.800;15.956;2023-05-27T03:51:44;101465.73;;;6.00;69.61
67987;BME280;54767;53.800;15.956;2023-05-27T03:54:12;101462.75;;;6.04;70.01
67987;BME280;54767;53.800;15.956;2023-05-27T03:56:41;101462.23;;;6.08;69.77
67987;BME280;54767;53.800;15.956;2023-05-27T03:59:09;101464.94;;;6.10;69.98
67987;BME280;54767;53.800;15.956;2023-05-27T04:01:38;101465.27;;;6.15;69.79
67987;BME280;54767;53.800;15.956;2023-05-27T04:04:06;101470.77;;;6.22;70.00
67987;BME280;54767;53.800;15.956;2023-05-27T04:06:34;101473.20;;;6.30;69.65
67987;BME280;54767;53.800;15.956;2023-05-27T04:09:03;101472.90;;;6.41;69.93
67987;BME280;54767;53.800;15.956;2023-05-27T04:11:31;101472.57;;;6.50;69.82
67987;BME280;54767;53.800;15.956;2023-05-27T04:14:00;101476.39;;;6.60;69.93
67987;BME280;54767;53.800;15.956;2023-05-27T04:16:28;101477.08;;;6.68;70.09
67987;BME280;54767;53.800;15.956;2023-05-27T04:19:00;101480.52;;;6.77;70.22
67987;BME280;54767;53.800;15.956;2023-05-27T04:21:28;101481.02;;;6.85;70.06
67987;BME280;54767;53.800;15.956;2023-05-27T04:23:57;101479.58;;;6.93;70.23
67987;BME280;54767;53.800;15.956;2023-05-27T04:26:25;101484.70;;;7.05;70.14
67987;BME280;54767;53.800;15.956;2023-05-27T04:28:54;101482.09;;;7.20;70.21
67987;BME280;54767;53.800;15.956;2023-05-27T04:31:22;101483.07;;;7.33;70.12
67987;BME280;54767;53.800;15.956;2023-05-27T04:33:51;101485.98;;;7.46;70.06
67987;BME280;54767;53.800;15.956;2023-05-27T04:36:21;101485.73;;;7.59;70.08
67987;BME280;54767;53.800;15.956;2023-05-27T04:38:53;101488.15;;;7.74;70.24
67987;BME280;54767;53.800;15.956;2023-05-27T04:41:21;101486.25;;;7.91;70.61
67987;BME280;54767;53.800;15.956;2023-05-27T04:43:56;101487.75;;;8.10;70.82
67987;BME280;54767;53.800;15.956;2023-05-27T04:46:30;101489.91;;;8.34;70.36
67987;BME280;54767;53.800;15.956;2023-05-27T04:48:59;101489.88;;;8.49;70.27
67987;BME280;54767;53.800;15.956;2023-05-27T04:51:27;101495.55;;;8.63;70.00
67987;BME280;54767;53.800;15.956;2023-05-27T04:53:56;101503.56;;;8.87;70.91
67987;BME280;54767;53.800;15.956;2023-05-27T04:56:25;101500.48;;;9.13;70.48
67987;BME280;54767;53.800;15.956;2023-05-27T04:58:54;101498.93;;;9.33;70.13
67987;BME280;54767;53.800;15.956;2023-05-27T05:01:24;101498.20;;;9.51;70.49
67987;BME280;54767;53.800;15.956;2023-05-27T05:03:53;101504.03;;;9.67;69.69
67987;BME280;54767;53.800;15.956;2023-05-27T05:06:40;101506.27;;;9.79;69.76
67987;BME280;54767;53.800;15.956;2023-05-27T05:09:08;101504.93;;;9.88;69.42
67987;BME280;54767;53.800;15.956;2023-05-27T05:11:39;101500.29;;;9.99;69.67
67987;BME280;54767;53.800;15.956;2023-05-27T05:14:08;101499.52;;;10.10;69.65
67987;BME280;54767;53.800;15.956;2023-05-27T05:16:36;101497.27;;;10.25;70.17
67987;BME280;54767;53.800;15.956;2023-05-27T05:19:04;101492.58;;;10.41;69.43
67987;BME280;54767;53.800;15.956;2023-05-27T05:21:33;101496.74;;;10.55;69.44
67987;BME280;54767;53.800;15.956;2023-05-27T05:24:01;101499.15;;;10.69;69.38
67987;BME280;54767;53.800;15.956;2023-05-27T05:26:30;101497.65;;;10.81;69.32
67987;BME280;54767;53.800;15.956;2023-05-27T05:28:58;101495.34;;;10.95;69.20
67987;BME280;54767;53.800;15.956;2023-05-27T05:31:27;101495.42;;;11.08;69.44
67987;BME280;54767;53.800;15.956;2023-05-27T05:33:55;101497.59;;;11.29;69.63
67987;BME280;54767;53.800;15.956;2023-05-27T05:36:24;101494.58;;;11.47;69.11
67987;BME280;54767;53.800;15.956;2023-05-27T05:38:52;101498.87;;;11.60;68.73
67987;BME280;54767;53.800;15.956;2023-05-27T05:41:21;101498.55;;;11.82;69.32
67987;BME280;54767;53.800;15.956;2023-05-27T05:43:49;101500.82;;;12.12;69.57
67987;BME280;54767;53.800;15.956;2023-05-27T05:46:17;101501.52;;;12.71;70.64
67987;BME280;54767;53.800;15.956;2023-05-27T05:48:46;101495.00;;;13.27;69.97
67987;BME280;54767;53.800;15.956;2023-05-27T05:51:18;101498.63;;;13.87;69.25
67987;BME280;54767;53.800;15.956;2023-05-27T05:53:46;101500.47;;;14.20;68.05
67987;BME280;54767;53.800;15.956;2023-05-27T05:56:14;101501.55;;;14.22;66.30
67987;BME280;54767;53.800;15.956;2023-05-27T05:58:43;101505.79;;;14.22;66.14
67987;BME280;54767;53.800;15.956;2023-05-27T06:01:11;101509.32;;;14.50;66.63
67987;BME280;54767;53.800;15.956;2023-05-27T06:03:40;101509.92;;;14.95;66.29
67987;BME280;54767;53.800;15.956;2023-05-27T06:06:09;101508.98;;;15.27;65.37
67987;BME280;54767;53.800;15.956;2023-05-27T06:08:37;101511.50;;;15.43;64.62
67987;BME280;54767;53.800;15.956;2023-05-27T06:11:06;101510.67;;;15.62;64.12
67987;BME280;54767;53.800;15.956;2023-05-27T06:13:34;101511.94;;;15.72;63.37
67987;BME280;54767;53.800;15.956;2023-05-27T06:16:02;101516.30;;;15.62;62.62
67987;BME280;54767;53.800;15.956;2023-05-27T06:18:31;101516.98;;;15.47;62.53
67987;BME280;54767;53.800;15.956;2023-05-27T06:20:59;101514.67;;;15.39;62.48
67987;BME280;54767;53.800;15.956;2023-05-27T06:23:28;101512.88;;;15.30;62.06
67987;BME280;54767;53.800;15.956;2023-05-27T06:25:56;101514.77;;;15.13;61.83
67987;BME280;54767;53.800;15.956;2023-05-27T06:28:25;101512.75;;;14.95;61.89
67987;BME280;54767;53.800;15.956;2023-05-27T06:30:53;101515.64;;;14.73;61.80
67987;BME280;54767;53.800;15.956;2023-05-27T06:33:22;101515.52;;;14.56;61.93
67987;BME280;54767;53.800;15.956;2023-05-27T06:35:50;101509.59;;;14.40;62.17
67987;BME280;54767;53.800;15.956;2023-05-27T06:38:18;101511.82;;;14.33;62.70
67987;BME280;54767;53.800;15.956;2023-05-27T06:40:47;101512.89;;;14.34;63.06
67987;BME280;54767;53.800;15.956;2023-05-27T06:43:16;101514.71;;;14.42;63.48
67987;BME280;54767;53.800;15.956;2023-05-27T06:45:44;101520.04;;;14.50;63.27
67987;BME280;54767;53.800;15.956;2023-05-27T06:48:30;101524.01;;;14.59;63.20
67987;BME280;54767;53.800;15.956;2023-05-27T06:50:59;101522.42;;;14.58;63.02
67987;BME280;54767;53.800;15.956;2023-05-27T06:53:28;101518.38;;;14.59;62.87
67987;BME280;54767;53.800;15.956;2023-05-27T06:55:57;101516.94;;;14.57;63.01
67987;BME280;54767;53.800;15.956;2023-05-27T06:58:25;101519.00;;;14.51;62.82
67987;BME280;54767;53.800;15.956;2023-05-27T07:00:53;101519.69;;;14.49;62.96
67987;BME280;54767;53.800;15.956;2023-05-27T07:03:23;101518.63;;;14.48;62.92
67987;BME280;54767;53.800;15.956;2023-05-27T07:05:51;101517.74;;;14.48;63.06
67987;BME280;54767;53.800;15.956;2023-05-27T07:08:20;101518.35;;;14.57;63.01
67987;BME280;54767;53.800;15.956;2023-05-27T07:10:49;101520.16;;;14.64;62.95
67987;BME280;54767;53.800;15.956;2023-05-27T07:13:20;101525.98;;;14.65;62.61
67987;BME280;54767;53.800;15.956;2023-05-27T07:15:48;101520.70;;;14.67;61.96
67987;BME280;54767;53.800;15.956;2023-05-27T07:18:18;101518.48;;;14.77;61.97
67987;BME280;54767;53.800;15.956;2023-05-27T07:20:47;101516.56;;;14.82;61.86
67987;BME280;54767;53.800;15.956;2023-05-27T07:23:16;101517.97;;;14.80;61.26
67987;BME280;54767;53.800;15.956;2023-05-27T07:26:01;101517.43;;;14.81;61.31
67987;BME280;54767;53.800;15.956;2023-05-27T07:28:29;101519.55;;;14.81;60.67
67987;BME280;54767;53.800;15.956;2023-05-27T07:30:58;101528.17;;;14.80;60.18
67987;BME280;54767;53.800;15.956;2023-05-27T07:33:52;101522.36;;;14.77;59.75
67987;BME280;54767;53.800;15.956;2023-05-27T07:36:21;101518.84;;;14.80;59.21
67987;BME280;54767;53.800;15.956;2023-05-27T07:39:10;101520.98;;;14.84;58.62
67987;BME280;54767;53.800;15.956;2023-05-27T07:43:48;101517.27;;;14.81;57.46
67987;BME280;54767;53.800;15.956;2023-05-27T07:47:39;101517.33;;;14.94;57.65
67987;BME280;54767;53.800;15.956;2023-05-27T07:50:41;101523.56;;;15.09;56.95
67987;BME280;54767;53.800;15.956;2023-05-27T07:53:59;101526.41;;;15.20;56.75
67987;BME280;54767;53.800;15.956;2023-05-27T07:56:36;101529.08;;;15.26;56.25
67987;BME280;54767;53.800;15.956;2023-05-27T08:02:23;101527.19;;;15.38;55.14
67987;BME280;54767;53.800;15.956;2023-05-27T08:04:52;101528.44;;;15.46;54.74
67987;BME280;54767;53.800;15.956;2023-05-27T08:07:20;101526.50;;;15.42;54.00
67987;BME280;54767;53.800;15.956;2023-05-27T08:09:54;101525.24;;;15.44;54.12
67987;BME280;54767;53.800;15.956;2023-05-27T08:12:34;101522.45;;;15.47;53.71
67987;BME280;54767;53.800;15.956;2023-05-27T08:15:03;101515.05;;;15.47;53.03
67987;BME280;54767;53.800;15.956;2023-05-27T08:17:32;101521.37;;;15.43;52.64
67987;BME280;54767;53.800;15.956;2023-05-27T08:20:24;101518.39;;;15.47;52.88
67987;BME280;54767;53.800;15.956;2023-05-27T08:23:05;101518.94;;;15.57;52.95
67987;BME280;54767;53.800;15.956;2023-05-27T08:27:13;101516.65;;;15.62;52.30
67987;BME280;54767;53.800;15.956;2023-05-27T08:30:13;101519.13;;;15.59;51.87
67987;BME280;54767;53.800;15.956;2023-05-27T08:32:45;101518.41;;;15.55;51.44
67987;BME280;54767;53.800;15.956;2023-05-27T08:35:17;101514.36;;;15.57;51.55
67987;BME280;54767;53.800;15.956;2023-05-27T08:37:46;101515.44;;;15.65;51.56
67987;BME280;54767;53.800;15.956;2023-05-27T08:40:17;101511.58;;;15.70;51.41
67987;BME280;54767;53.800;15.956;2023-05-27T08:42:47;101509.48;;;15.82;51.58
67987;BME280;54767;53.800;15.956;2023-05-27T08:45:16;101511.60;;;15.92;51.74
67987;BME280;54767;53.800;15.956;2023-05-27T08:47:45;101505.06;;;15.96;51.23
67987;BME280;54767;53.800;15.956;2023-05-27T08:50:14;101506.30;;;16.01;51.12
67987;BME280;54767;53.800;15.956;2023-05-27T08:58:01;101509.66;;;16.09;50.07
67987;BME280;54767;53.800;15.956;2023-05-27T09:04:31;101508.05;;;16.26;50.16
67987;BME280;54767;53.800;15.956;2023-05-27T09:07:19;101509.28;;;16.36;49.92
67987;BME280;54767;53.800;15.956;2023-05-27T09:11:08;101510.52;;;16.35;49.52
67987;BME280;54767;53.800;15.956;2023-05-27T09:14:39;101506.97;;;16.43;49.75
67987;BME280;54767;53.800;15.956;2023-05-27T09:17:10;101510.48;;;16.54;49.40
67987;BME280;54767;53.800;15.956;2023-05-27T09:19:39;101508.88;;;16.63;48.81
67987;BME280;54767;53.800;15.956;2023-05-27T09:24:52;101509.20;;;16.77;48.63
67987;BME280;54767;53.800;15.956;2023-05-27T09:27:28;101502.11;;;16.86;47.91
67987;BME280;54767;53.800;15.956;2023-05-27T09:30:05;101497.13;;;16.95;47.91
67987;BME280;54767;53.800;15.956;2023-05-27T09:32:35;101495.52;;;17.00;47.57
67987;BME280;54767;53.800;15.956;2023-05-27T09:35:05;101486.83;;;17.03;47.53
67987;BME280;54767;53.800;15.956;2023-05-27T09:37:36;101483.30;;;17.07;47.30
67987;BME280;54767;53.800;15.956;2023-05-27T09:40:09;101482.36;;;17.15;46.48
67987;BME280;54767;53.800;15.956;2023-05-27T09:42:46;101479.46;;;17.26;46.35
67987;BME280;54767;53.800;15.956;2023-05-27T09:45:20;101474.99;;;17.36;46.30
67987;BME280;54767;53.800;15.956;2023-05-27T09:47:49;101477.06;;;17.44;46.54
67987;BME280;54767;53.800;15.956;2023-05-27T09:50:20;101477.01;;;17.51;46.39
67987;BME280;54767;53.800;15.956;2023-05-27T09:52:49;101476.61;;;17.58;46.25
67987;BME280;54767;53.800;15.956;2023-05-27T09:55:20;101477.25;;;17.66;45.16
67987;BME280;54767;53.800;15.956;2023-05-27T09:57:50;101472.25;;;17.72;44.72
67987;BME280;54767;53.800;15.956;2023-05-27T10:00:19;101471.34;;;17.76;43.95
67987;BME280;54767;53.800;15.956;2023-05-27T10:02:48;101464.07;;;17.80;43.88
67987;BME280;54767;53.800;15.956;2023-05-27T10:05:17;101461.35;;;17.88;43.44
67987;BME280;54767;53.800;15.956;2023-05-27T10:07:48;101460.79;;;17.92;42.31
67987;BME280;54767;53.800;15.956;2023-05-27T10:10:20;101461.33;;;17.93;43.02
67987;BME280;54767;53.800;15.956;2023-05-27T10:12:50;101460.73;;;17.98;43.50
67987;BME280;54767;53.800;15.956;2023-05-27T10:15:29;101458.92;;;18.04;43.55
67987;BME280;54767;53.800;15.956;2023-05-27T10:18:05;101459.23;;;18.09;44.17
67987;BME280;54767;53.800;15.956;2023-05-27T10:20:42;101460.93;;;18.15;44.28
67987;BME280;54767;53.800;15.956;2023-05-27T10:23:16;101454.52;;;18.20;44.72
67987;BME280;54767;53.800;15.956;2023-05-27T10:25:53;101457.84;;;18.22;44.37
67987;BME280;54767;53.800;15.956;2023-05-27T10:28:31;101456.78;;;18.24;44.70
67987;BME280;54767;53.800;15.956;2023-05-27T10:31:19;101451.98;;;18.24;44.01
67987;BME280;54767;53.800;15.956;2023-05-27T10:33:49;101455.65;;;18.29;44.01
67987;BME280;54767;53.800;15.956;2023-05-27T10:36:26;101457.95;;;18.30;43.40
67987;BME280;54767;53.800;15.956;2023-05-27T10:39:20;101456.78;;;18.24;43.09
67987;BME280;54767;53.800;15.956;2023-05-27T10:44:34;101453.68;;;18.32;41.22
67987;BME280;54767;53.800;15.956;2023-05-27T10:47:04;101450.95;;;18.38;42.14
67987;BME280;54767;53.800;15.956;2023-05-27T10:49:39;101448.90;;;18.47;42.97
67987;BME280;54767;53.800;15.956;2023-05-27T10:52:10;101448.96;;;18.57;43.18
67987;BME280;54767;53.800;15.956;2023-05-27T10:54:46;101449.39;;;18.66;43.15
67987;BME280;54767;53.800;15.956;2023-05-27T10:57:17;101442.05;;;18.73;43.08
67987;BME280;54767;53.800;15.956;2023-05-27T10:59:54;101444.36;;;18.73;39.91
67987;BME280;54767;53.800;15.956;2023-05-27T11:02:30;101440.13;;;18.70;39.71
67987;BME280;54767;53.800;15.956;2023-05-27T11:05:10;101430.89;;;18.71;40.64
67987;BME280;54767;53.800;15.956;2023-05-27T11:07:40;101427.13;;;18.76;40.17
67987;BME280;54767;53.800;15.956;2023-05-27T11:10:11;101419.80;;;18.81;41.80
67987;BME280;54767;53.800;15.956;2023-05-27T11:12:47;101418.83;;;18.88;42.48
67987;BME280;54767;53.800;15.956;2023-05-27T11:15:18;101420.48;;;18.96;41.87
67987;BME280;54767;53.800;15.956;2023-05-27T11:17:46;101418.44;;;19.03;41.08
67987;BME280;54767;53.800;15.956;2023-05-27T11:20:14;101411.20;;;19.00;39.41
67987;BME280;54767;53.800;15.956;2023-05-27T11:22:50;101408.94;;;18.97;39.85
67987;BME280;54767;53.800;15.956;2023-05-27T11:25:19;101415.08;;;19.03;40.75
67987;BME280;54767;53.800;15.956;2023-05-27T11:27:48;101405.20;;;19.11;41.33
67987;BME280;54767;53.800;15.956;2023-05-27T11:30:23;101401.54;;;19.18;41.66
67987;BME280;54767;53.800;15.956;2023-05-27T11:32:52;101403.36;;;19.27;41.94
67987;BME280;54767;53.800;15.956;2023-05-27T11:35:24;101401.98;;;19.36;42.18
67987;BME280;54767;53.800;15.956;2023-05-27T11:38:04;101401.44;;;19.48;42.59
67987;BME280;54767;53.800;15.956;2023-05-27T11:40:36;101398.45;;;19.56;42.04
67987;BME280;54767;53.800;15.956;2023-05-27T11:43:05;101397.27;;;19.63;41.92
67987;BME280;54767;53.800;15.956;2023-05-27T11:45:36;101391.48;;;19.71;41.70
67987;BME280;54767;53.800;15.956;2023-05-27T11:48:04;101391.61;;;19.74;40.64
67987;BME280;54767;53.800;15.956;2023-05-27T11:50:34;101391.31;;;19.80;41.17
67987;BME280;54767;53.800;15.956;2023-05-27T11:53:03;101386.73;;;19.88;40.93
67987;BME280;54767;53.800;15.956;2023-05-27T11:55:32;101386.55;;;19.89;40.15
67987;BME280;54767;53.800;15.956;2023-05-27T11:58:01;101382.57;;;19.93;40.65
67987;BME280;54767;53.800;15.956;2023-05-27T12:00:29;101385.30;;;19.99;40.75
67987;BME280;54767;53.800;15.956;2023-05-27T12:03:00;101387.27;;;20.07;41.00
67987;BME280;54767;53.800;15.956;2023-05-27T12:05:28;101378.09;;;20.14;40.78
67987;BME280;54767;53.800;15.956;2023-05-27T12:08:02;101380.08;;;20.21;40.51
67987;BME280;54767;53.800;15.956;2023-05-27T12:10:31;101374.98;;;20.28;40.52
67987;BME280;54767;53.800;15.956;2023-05-27T12:13:05;101372.34;;;20.34;41.00
67987;BME280;54767;53.800;15.956;2023-05-27T12:15:34;101366.83;;;20.43;41.41
67987;BME280;54767;53.800;15.956;2023-05-27T12:18:05;101363.10;;;20.52;41.00
67987;BME280;54767;53.800;15.956;2023-05-27T12:20:33;101356.56;;;20.59;40.54
67987;BME280;54767;53.800;15.956;2023-05-27T12:23:02;101351.45;;;20.65;40.57
67987;BME280;54767;53.800;15.956;2023-05-27T12:25:30;101353.47;;;20.71;40.40
67987;BME280;54767;53.800;15.956;2023-05-27T12:27:59;101353.86;;;20.77;40.68
67987;BME280;54767;53.800;15.956;2023-05-27T12:30:28;101352.55;;;20.81;39.78
67987;BME280;54767;53.800;15.956;2023-05-27T12:32:57;101355.80;;;20.86;40.06
67987;BME280;54767;53.800;15.956;2023-05-27T12:35:27;101349.80;;;20.91;40.14
67987;BME280;54767;53.800;15.956;2023-05-27T12:37:57;101346.84;;;20.97;39.88
67987;BME280;54767;53.800;15.956;2023-05-27T12:40:26;101341.73;;;21.02;39.95
67987;BME280;54767;53.800;15.956;2023-05-27T12:42:55;101336.55;;;21.02;39.01
67987;BME280;54767;53.800;15.956;2023-05-27T12:45:24;101332.17;;;21.07;39.08
67987;BME280;54767;53.800;15.956;2023-05-27T12:47:55;101332.58;;;21.12;39.50
67987;BME280;54767;53.800;15.956;2023-05-27T12:50:24;101331.04;;;21.17;39.17
67987;BME280;54767;53.800;15.956;2023-05-27T12:52:53;101325.07;;;21.21;38.14
67987;BME280;54767;53.800;15.956;2023-05-27T12:55:21;101323.16;;;21.18;36.99
67987;BME280;54767;53.800;15.956;2023-05-27T12:57:51;101322.73;;;21.14;36.30
67987;BME280;54767;53.800;15.956;2023-05-27T13:00:20;101320.40;;;21.15;37.57
67987;BME280;54767;53.800;15.956;2023-05-27T13:02:50;101315.81;;;21.21;37.95
67987;BME280;54767;53.800;15.956;2023-05-27T13:05:19;101310.02;;;21.26;37.26
67987;BME280;54767;53.800;15.956;2023-05-27T13:10:28;101310.33;;;21.34;36.23
67987;BME280;54767;53.800;15.956;2023-05-27T13:12:58;101308.04;;;21.33;35.93
67987;BME280;54767;53.800;15.956;2023-05-27T13:15:27;101305.66;;;21.35;36.86
67987;BME280;54767;53.800;15.956;2023-05-27T13:17:56;101307.23;;;21.38;36.56
67987;BME280;54767;53.800;15.956;2023-05-27T13:20:27;101308.35;;;21.42;36.96
67987;BME280;54767;53.800;15.956;2023-05-27T13:23:01;101305.55;;;21.48;36.78
67987;BME280;54767;53.800;15.956;2023-05-27T13:25:30;101302.75;;;21.52;36.61
67987;BME280;54767;53.800;15.956;2023-05-27T13:27:59;101302.90;;;21.54;36.60
67987;BME280;54767;53.800;15.956;2023-05-27T13:30:28;101297.09;;;21.57;36.86
67987;BME280;54767;53.800;15.956;2023-05-27T13:32:56;101294.48;;;21.61;36.59
67987;BME280;54767;53.800;15.956;2023-05-27T13:35:25;101289.04;;;21.65;36.40